Time;durP1;ratioP1;P1;durP2;ratioP2;P2;SDS_P1;SDS_P2;PMS_P1;PMS_P2;Temp;Humidity;BMP_temperature;BMP_pressure;BME280_temperature;BME280_humidity;BME280_pressure;Samples;Min_cycle;Max_cycle;Signal;HPM_P1;HPM_P2
2023/12/20 00:00:58;;;;;;;7.70;5.73;;;;;;;5.94;100.00;100498.09;5022260;28;20301;-74
2023/12/20 00:03:25;;;;;;;7.17;5.23;;;;;;;5.94;100.00;100497.28;5041045;28;20202;-74
2023/12/20 00:05:51;;;;;;;8.43;5.73;;;;;;;5.95;100.00;100501.50;5040926;28;20278;-73
2023/12/20 00:08:18;;;;;;;6.67;5.37;;;;;;;5.94;100.00;100499.91;5041207;28;20203;-73
2023/12/20 00:10:45;;;;;;;7.47;5.37;;;;;;;5.93;100.00;100488.69;5043185;28;20195;-74
2023/12/20 00:13:12;;;;;;;6.73;5.07;;;;;;;5.93;100.00;100493.13;5042714;28;20208;-74
2023/12/20 00:15:39;;;;;;;8.27;5.00;;;;;;;5.93;100.00;100482.66;5042047;28;20215;-73
2023/12/20 00:18:05;;;;;;;7.13;5.10;;;;;;;5.93;100.00;100487.88;5021422;28;20203;-74
2023/12/20 00:20:32;;;;;;;6.83;5.07;;;;;;;5.93;100.00;100487.88;5038976;28;20323;-73
2023/12/20 00:22:58;;;;;;;5.80;4.53;;;;;;;5.91;100.00;100480.31;5041261;28;20206;-73
2023/12/20 00:25:25;;;;;;;7.13;5.00;;;;;;;5.91;100.00;100493.41;5022514;28;20210;-74
2023/12/20 00:27:54;;;;;;;6.23;4.53;;;;;;;5.90;100.00;100470.91;5020658;28;20313;-72
2023/12/20 00:30:24;;;;;;;6.07;4.73;;;;;;;5.92;100.00;100487.13;5039701;28;20222;-74
2023/12/20 00:32:53;;;;;;;5.67;4.33;;;;;;;5.92;100.00;100486.34;5039730;28;20206;-71
2023/12/20 00:35:20;;;;;;;5.77;4.43;;;;;;;5.91;100.00;100488.19;5040032;28;20215;-74
2023/12/20 00:37:46;;;;;;;4.80;4.00;;;;;;;5.91;100.00;100493.41;5041148;28;20199;-74
2023/12/20 00:40:13;;;;;;;5.67;4.37;;;;;;;5.89;100.00;100486.91;5043167;28;20212;-73
2023/12/20 00:42:39;;;;;;;5.50;3.83;;;;;;;5.90;100.00;100478.78;5037759;28;20822;-73
2023/12/20 00:45:06;;;;;;;4.40;3.50;;;;;;;5.90;100.00;100478.00;5041668;28;20605;-73
2023/12/20 00:47:34;;;;;;;5.30;3.83;;;;;;;5.88;100.00;100475.69;5041652;28;20222;-73
2023/12/20 00:50:00;;;;;;;5.10;3.83;;;;;;;5.90;100.00;100480.63;5038973;28;20223;-72
2023/12/20 00:52:27;;;;;;;3.57;2.97;;;;;;;5.89;100.00;100477.22;5042419;28;20287;-74
2023/12/20 00:54:56;;;;;;;5.60;3.77;;;;;;;5.90;100.00;100473.53;5041615;28;20208;-73
2023/12/20 00:57:22;;;;;;;5.07;3.70;;;;;;;5.89;100.00;100482.47;5044225;28;20203;-74
2023/12/20 00:59:49;;;;;;;5.07;3.47;;;;;;;5.88;100.00;100467.81;5042574;28;20291;-73
2023/12/20 01:02:16;;;;;;;4.47;3.50;;;;;;;5.89;100.00;100472.00;5041072;28;20675;-73
2023/12/20 01:04:43;;;;;;;3.73;3.30;;;;;;;5.88;100.00;100474.91;5042601;28;20699;-73
2023/12/20 01:07:10;;;;;;;4.73;3.63;;;;;;;5.88;100.00;100469.66;5042553;28;20697;-73
2023/12/20 01:09:36;;;;;;;3.40;2.83;;;;;;;5.85;100.00;100465.78;5044776;28;20233;-72
2023/12/20 01:12:02;;;;;;;3.77;3.03;;;;;;;5.87;100.00;100470.72;5045810;28;20191;-73
2023/12/20 01:14:28;;;;;;;4.17;3.33;;;;;;;5.88;100.00;100469.66;5043472;28;20211;-73
2023/12/20 01:16:57;;;;;;;3.70;2.73;;;;;;;5.86;100.00;100464.72;5044034;28;20210;-71
2023/12/20 01:19:25;;;;;;;4.87;3.17;;;;;;;5.86;100.00;100454.22;5027215;28;20595;-73
2023/12/20 01:21:52;;;;;;;4.07;3.23;;;;;;;5.84;100.00;100451.13;5030117;28;20243;-73
2023/12/20 01:24:19;;;;;;;3.67;2.80;;;;;;;5.85;100.00;100444.06;5042146;28;20666;-73
2023/12/20 01:26:45;;;;;;;3.50;2.97;;;;;;;5.82;100.00;100440.19;5045265;28;20647;-73
2023/12/20 01:29:12;;;;;;;3.77;2.90;;;;;;;5.83;100.00;100441.72;5042089;28;20237;-73
2023/12/20 01:31:38;;;;;;;3.03;2.67;;;;;;;5.82;100.00;100442.03;5044928;28;20214;-74
2023/12/20 01:34:05;;;;;;;5.03;3.20;;;;;;;5.82;100.00;100436.78;5041974;28;20654;-73
2023/12/20 01:36:32;;;;;;;3.10;2.70;;;;;;;5.82;100.00;100434.16;5044355;28;20729;-73
2023/12/20 01:38:59;;;;;;;5.77;3.10;;;;;;;5.81;100.00;100437.88;5039802;28;20232;-73
2023/12/20 01:41:26;;;;;;;2.90;2.60;;;;;;;5.81;100.00;100430.00;5042934;28;20192;-74
2023/12/20 01:43:53;;;;;;;4.13;3.03;;;;;;;5.80;100.00;100431.09;5041544;28;20227;-73
2023/12/20 01:46:20;;;;;;;4.13;3.03;;;;;;;5.78;100.00;100428.72;5041479;28;20641;-73
2023/12/20 01:48:47;;;;;;;3.10;2.70;;;;;;;5.78;100.00;100435.78;5041996;28;20218;-73
2023/12/20 01:51:14;;;;;;;3.40;2.87;;;;;;;5.78;100.00;100443.66;5043529;28;20206;-73
2023/12/20 01:53:42;;;;;;;3.97;2.87;;;;;;;5.78;100.00;100438.41;5045700;28;20654;-73
2023/12/20 01:56:10;;;;;;;4.63;3.20;;;;;;;5.77;100.00;100435.03;5040594;28;20203;-72
2023/12/20 01:58:40;;;;;;;4.53;3.40;;;;;;;5.76;100.00;100437.94;5040720;28;20222;-73
2023/12/20 02:01:06;;;;;;;4.90;3.27;;;;;;;5.76;100.00;100432.72;5027057;28;20288;-72
2023/12/20 02:03:33;;;;;;;3.90;3.23;;;;;;;5.77;100.00;100429.00;5043026;28;20207;-73
2023/12/20 02:06:02;;;;;;;3.70;3.10;;;;;;;5.75;100.00;100431.91;5028246;28;20229;-73
2023/12/20 02:08:29;;;;;;;3.90;3.07;;;;;;;5.76;100.00;100435.31;5043395;28;20239;-73
2023/12/20 02:10:56;;;;;;;3.77;3.03;;;;;;;5.75;100.00;100423.31;5038035;28;20204;-72
2023/12/20 02:13:25;;;;;;;3.37;2.90;;;;;;;5.76;100.00;100422.22;5036870;28;20278;-71
2023/12/20 02:15:51;;;;;;;4.47;3.33;;;;;;;5.75;100.00;100415.44;5043616;28;20199;-72
2023/12/20 02:18:18;;;;;;;4.37;3.30;;;;;;;5.75;100.00;100412.81;5041767;28;20555;-73
2023/12/20 02:20:44;;;;;;;3.87;2.83;;;;;;;5.74;100.00;100412.03;5023880;28;20298;-73
2023/12/20 02:23:12;;;;;;;3.77;3.20;;;;;;;5.74;100.00;100408.63;5025164;28;20206;-73
2023/12/20 02:25:38;;;;;;;4.20;3.20;;;;;;;5.73;100.00;100413.13;5027397;28;20199;-73
2023/12/20 02:28:06;;;;;;;5.47;3.83;;;;;;;5.72;100.00;100408.94;5041926;28;20226;-73
2023/12/20 02:30:33;;;;;;;3.83;2.97;;;;;;;5.73;100.00;100409.72;5044131;28;20195;-73
2023/12/20 02:33:04;;;;;;;3.93;3.13;;;;;;;5.71;100.00;100404.78;5040458;28;20203;-74
2023/12/20 02:35:30;;;;;;;3.77;2.80;;;;;;;5.72;100.00;100400.31;5044219;28;20206;-73
2023/12/20 02:37:57;;;;;;;3.03;2.57;;;;;;;5.71;100.00;100388.28;5044963;28;20199;-72
2023/12/20 02:40:27;;;;;;;3.63;2.87;;;;;;;5.70;100.00;100392.75;5026017;28;20227;-73
2023/12/20 02:42:53;;;;;;;4.60;3.27;;;;;;;5.69;100.00;100399.06;5040562;28;20199;-73
2023/12/20 02:45:20;;;;;;;3.43;2.90;;;;;;;5.70;100.00;100397.22;5040625;28;20192;-73
2023/12/20 02:47:46;;;;;;;4.47;3.10;;;;;;;5.71;100.00;100393.53;5041551;28;20216;-74
2023/12/20 02:50:12;;;;;;;4.03;3.63;;;;;;;5.69;100.00;100393.06;5042525;28;20227;-73
2023/12/20 02:52:39;;;;;;;3.17;2.73;;;;;;;5.69;100.00;100398.31;5042995;28;20206;-74
2023/12/20 02:55:06;;;;;;;4.50;2.97;;;;;;;5.67;100.00;100384.72;5043711;28;20203;-74
2023/12/20 02:57:36;;;;;;;3.97;2.83;;;;;;;5.66;100.00;100383.94;5044407;28;20295;-73
2023/12/20 03:00:04;;;;;;;4.63;3.00;;;;;;;5.68;100.00;100399.34;5025985;28;20665;-71
2023/12/20 03:02:30;;;;;;;3.30;2.90;;;;;;;5.67;100.00;100397.81;5042651;28;20635;-73
2023/12/20 03:04:57;;;;;;;2.57;2.37;;;;;;;5.67;100.00;100397.81;5035281;28;20196;-74
2023/12/20 03:07:23;;;;;;;3.70;3.13;;;;;;;5.67;100.00;100390.72;5041095;28;20215;-73
2023/12/20 03:09:49;;;;;;;4.67;3.23;;;;;;;5.66;100.00;100385.78;5042919;28;20222;-71
2023/12/20 03:12:15;;;;;;;3.83;3.17;;;;;;;5.67;100.00;100384.72;5040445;28;20686;-74
2023/12/20 03:14:44;;;;;;;3.80;2.83;;;;;;;5.66;100.00;100385.78;5040949;28;20207;-73
2023/12/20 03:17:10;;;;;;;4.20;3.30;;;;;;;5.65;100.00;100376.38;5044382;28;20646;-73
2023/12/20 03:19:37;;;;;;;4.77;3.00;;;;;;;5.65;100.00;100371.91;5042056;28;20215;-74
2023/12/20 03:22:03;;;;;;;4.30;3.33;;;;;;;5.65;100.00;100371.16;5042555;28;20214;-73
2023/12/20 03:24:30;;;;;;;5.17;3.20;;;;;;;5.65;100.00;100371.91;5041814;28;20206;-73
2023/12/20 03:26:56;;;;;;;5.47;3.17;;;;;;;5.65;100.00;100379.75;5042154;28;20214;-73
2023/12/20 03:29:22;;;;;;;4.30;3.40;;;;;;;5.65;100.00;100371.16;5040168;28;20226;-74
2023/12/20 03:31:50;;;;;;;4.10;3.00;;;;;;;5.64;100.00;100380.06;5040591;28;20405;-73
2023/12/20 03:34:16;;;;;;;3.57;2.90;;;;;;;5.64;100.00;100374.84;5041756;28;20207;-73
2023/12/20 03:36:43;;;;;;;3.53;2.97;;;;;;;5.63;100.00;100374.06;5026033;28;20211;-73
2023/12/20 03:39:10;;;;;;;3.77;3.17;;;;;;;5.64;100.00;100378.22;5025293;28;20223;-72
2023/12/20 03:41:36;;;;;;;4.93;3.50;;;;;;;5.64;100.00;100369.59;5024359;28;20645;-73
2023/12/20 03:44:02;;;;;;;5.90;3.20;;;;;;;5.63;100.00;100360.16;5045475;28;20213;-74
2023/12/20 03:46:29;;;;;;;3.43;3.00;;;;;;;5.63;100.00;100373.28;5038290;28;20683;-74
2023/12/20 03:48:56;;;;;;;4.40;3.17;;;;;;;5.61;100.00;100365.72;5043122;28;20579;-73
2023/12/20 03:51:23;;;;;;;3.83;3.07;;;;;;;5.61;100.00;100378.03;5038978;28;20207;-74
2023/12/20 03:53:49;;;;;;;3.70;2.93;;;;;;;5.62;100.00;100369.91;5039180;28;20210;-74
2023/12/20 03:56:15;;;;;;;3.50;3.07;;;;;;;5.63;100.00;100375.88;5025484;28;20206;-74
2023/12/20 03:58:42;;;;;;;3.40;2.80;;;;;;;5.63;100.00;100375.88;5044324;28;20225;-72
2023/12/20 04:01:10;;;;;;;3.43;2.83;;;;;;;5.62;100.00;100375.13;5040118;28;20199;-72
2023/12/20 04:03:37;;;;;;;4.03;3.20;;;;;;;5.62;100.00;100383.00;5041105;28;20241;-74
2023/12/20 04:06:05;;;;;;;3.07;2.47;;;;;;;5.60;100.00;100379.13;5043662;28;20289;-73
2023/12/20 04:08:31;;;;;;;4.27;2.80;;;;;;;5.61;100.00;100383.28;5042977;28;20223;-74
2023/12/20 04:10:58;;;;;;;3.47;3.07;;;;;;;5.61;100.00;100376.22;5036982;28;20243;-74
2023/12/20 04:13:24;;;;;;;4.73;2.93;;;;;;;5.62;100.00;100376.97;5041831;28;20204;-74
2023/12/20 04:15:51;;;;;;;4.07;3.00;;;;;;;5.60;100.00;100373.88;5025735;28;20199;-74
2023/12/20 04:18:18;;;;;;;4.23;3.17;;;;;;;5.59;100.00;100375.72;5023995;28;20290;-74
2023/12/20 04:20:44;;;;;;;3.70;2.87;;;;;;;5.60;100.00;100373.88;5028301;28;20593;-73
2023/12/20 04:23:12;;;;;;;3.57;3.13;;;;;;;5.59;100.00;100367.84;5043834;28;20233;-74
2023/12/20 04:25:38;;;;;;;4.73;3.10;;;;;;;5.59;100.00;100373.09;5044384;28;20203;-74
2023/12/20 04:28:05;;;;;;;3.30;2.63;;;;;;;5.60;100.00;100379.13;5043246;28;20208;-74
2023/12/20 04:30:31;;;;;;;3.63;2.63;;;;;;;5.59;100.00;100377.56;5022325;28;20294;-74
2023/12/20 04:32:57;;;;;;;3.17;2.73;;;;;;;5.60;100.00;100368.63;5047060;28;20216;-74
2023/12/20 04:35:24;;;;;;;3.07;2.70;;;;;;;5.59;100.00;100370.47;5043588;28;20739;-74
2023/12/20 04:37:50;;;;;;;5.10;2.47;;;;;;;5.61;100.00;100372.81;5043336;28;20191;-74
2023/12/20 04:40:18;;;;;;;3.47;2.60;;;;;;;5.59;100.00;100362.63;5043085;28;20219;-74
2023/12/20 04:42:44;;;;;;;3.00;2.50;;;;;;;5.58;100.00;100374.16;5040163;28;20195;-72
2023/12/20 04:45:12;;;;;;;3.20;2.63;;;;;;;5.59;100.00;100367.09;5048036;28;20203;-72
2023/12/20 04:47:39;;;;;;;4.00;2.80;;;;;;;5.58;100.00;100363.69;5046570;28;20596;-74
2023/12/20 04:50:07;;;;;;;3.17;2.87;;;;;;;5.58;100.00;100365.53;5021873;28;20662;-74
2023/12/20 04:52:33;;;;;;;3.27;2.70;;;;;;;5.58;100.00;100371.56;5045811;28;20200;-74
2023/12/20 04:54:59;;;;;;;3.77;2.77;;;;;;;5.58;100.00;100378.63;5047425;28;20203;-74
2023/12/20 04:57:27;;;;;;;3.13;2.70;;;;;;;5.58;100.00;100365.53;5043531;28;20191;-74
2023/12/20 04:59:53;;;;;;;3.53;2.50;;;;;;;5.59;100.00;100373.09;5046064;28;20627;-73
2023/12/20 05:02:20;;;;;;;3.27;2.50;;;;;;;5.58;100.00;100368.94;5042780;28;20536;-74
2023/12/20 05:04:46;;;;;;;3.77;2.90;;;;;;;5.58;100.00;100371.56;5042450;28;20227;-73
2023/12/20 05:07:12;;;;;;;3.30;2.67;;;;;;;5.57;100.00;100372.63;5027085;28;20207;-71
2023/12/20 05:09:39;;;;;;;3.70;2.67;;;;;;;5.58;100.00;100391.72;5039694;28;20215;-74
2023/12/20 05:12:06;;;;;;;6.60;3.33;;;;;;;5.57;100.00;100393.56;5041945;28;20203;-74
2023/12/20 05:14:34;;;;;;;4.40;3.13;;;;;;;5.58;100.00;100394.34;5042305;28;20203;-74
2023/12/20 05:17:00;;;;;;;4.27;2.97;;;;;;;5.56;100.00;100396.50;5045053;28;20684;-74
2023/12/20 05:19:27;;;;;;;3.27;2.40;;;;;;;5.57;100.00;100398.03;5041758;28;20218;-73
2023/12/20 05:21:53;;;;;;;3.40;3.10;;;;;;;5.57;100.00;100392.78;5029161;28;20203;-74
2023/12/20 05:24:20;;;;;;;3.20;2.90;;;;;;;5.57;100.00;100384.94;5042909;28;20546;-73
2023/12/20 05:26:46;;;;;;;5.03;3.07;;;;;;;5.56;100.00;100376.31;5029511;28;20816;-73
2023/12/20 05:29:12;;;;;;;4.27;3.33;;;;;;;5.58;100.00;100368.94;5039560;28;20228;-73
2023/12/20 05:31:40;;;;;;;3.70;3.30;;;;;;;5.56;100.00;100368.47;5043942;28;20210;-74
2023/12/20 05:34:06;;;;;;;7.30;3.77;;;;;;;5.56;100.00;100367.69;5049006;28;20196;-72
2023/12/20 05:36:33;;;;;;;4.70;3.40;;;;;;;5.56;100.00;100372.91;5044922;28;20279;-74
2023/12/20 05:38:59;;;;;;;3.60;2.97;;;;;;;5.56;100.00;100393.88;5049967;28;20215;-72
2023/12/20 05:41:25;;;;;;;4.50;3.67;;;;;;;5.54;100.00;100399.41;5033141;28;20566;-73
2023/12/20 05:43:52;;;;;;;3.63;3.10;;;;;;;5.55;100.00;100394.94;5046451;28;20206;-71
2023/12/20 05:46:18;;;;;;;5.87;3.23;;;;;;;5.53;100.00;100392.63;5045818;28;20207;-71
2023/12/20 05:48:46;;;;;;;5.00;3.17;;;;;;;5.52;100.00;100398.16;5056526;28;20233;-72
2023/12/20 05:51:12;;;;;;;3.60;2.80;;;;;;;5.51;100.00;100400.00;5061013;28;20425;-72
2023/12/20 05:53:38;;;;;;;5.03;2.77;;;;;;;5.48;100.00;100403.19;5062497;28;20195;-71
2023/12/20 05:56:05;;;;;;;4.70;2.77;;;;;;;5.47;100.00;100414.75;5055102;28;20200;-72
2023/12/20 05:58:33;;;;;;;4.07;2.70;;;;;;;5.45;100.00;100422.09;5055460;28;20211;-72
2023/12/20 06:00:59;;;;;;;4.47;2.57;;;;;;;5.42;100.00;100414.88;5050585;28;20207;-73
2023/12/20 06:03:25;;;;;;;3.63;2.47;;;;;;;5.43;100.00;100410.38;5042007;28;20206;-71
2023/12/20 06:05:53;;;;;;;3.10;2.73;;;;;;;5.41;100.00;100415.16;5042540;28;20199;-73
2023/12/20 06:08:19;;;;;;;4.40;2.60;;;;;;;5.40;100.00;100406.53;5038368;28;20214;-72
2023/12/20 06:10:45;;;;;;;3.00;2.20;;;;;;;5.39;100.00;100418.06;5034596;28;20191;-72
2023/12/20 06:13:13;;;;;;;3.13;2.47;;;;;;;5.37;100.00;100412.34;5044686;28;20211;-73
2023/12/20 06:15:39;;;;;;;5.77;2.30;;;;;;;5.35;100.00;100416.34;5044420;28;20203;-74
2023/12/20 06:18:06;;;;;;;3.90;2.50;;;;;;;5.33;100.00;100421.84;5046550;28;20192;-73
2023/12/20 06:20:33;;;;;;;2.80;1.87;;;;;;;5.30;100.00;100414.59;5042849;28;20203;-72
2023/12/20 06:23:00;;;;;;;4.03;2.23;;;;;;;5.29;100.00;100418.28;5043867;28;20199;-74
2023/12/20 06:25:27;;;;;;;3.83;2.40;;;;;;;5.26;100.00;100425.94;5046809;28;20211;-72
2023/12/20 06:27:53;;;;;;;3.43;1.80;;;;;;;5.20;100.00;100427.91;5041781;28;20219;-73
2023/12/20 06:30:19;;;;;;;3.10;2.20;;;;;;;5.14;100.00;100420.44;5044590;28;20218;-73
2023/12/20 06:32:46;;;;;;;2.67;1.80;;;;;;;5.06;100.00;100415.88;5043550;28;20200;-73
2023/12/20 06:35:13;;;;;;;4.37;1.90;;;;;;;4.99;100.00;100415.50;5044771;28;20281;-72
2023/12/20 06:37:42;;;;;;;2.57;1.90;;;;;;;4.87;100.00;100420.47;5045217;28;20628;-73
2023/12/20 06:40:10;;;;;;;3.33;1.80;;;;;;;4.82;100.00;100433.66;5044766;28;20231;-73
2023/12/20 06:42:37;;;;;;;5.83;2.03;;;;;;;4.73;100.00;100425.69;5044820;28;20198;-74
2023/12/20 06:45:04;;;;;;;5.23;2.13;;;;;;;4.62;100.00;100429.53;5050391;28;20229;-73
2023/12/20 06:47:30;;;;;;;4.70;2.77;;;;;;;4.54;100.00;100421.59;5039260;28;20577;-73
2023/12/20 06:49:57;;;;;;;3.30;2.40;;;;;;;4.48;100.00;100434.00;5043970;28;20220;-74
2023/12/20 06:52:23;;;;;;;3.70;2.60;;;;;;;4.41;100.00;100433.59;5044153;28;20567;-72
2023/12/20 06:54:49;;;;;;;6.83;2.73;;;;;;;4.36;100.00;100431.06;5044621;28;20282;-74
2023/12/20 06:57:17;;;;;;;7.37;3.13;;;;;;;4.34;100.00;100435.81;5046484;28;20218;-73
2023/12/20 06:59:45;;;;;;;4.03;3.07;;;;;;;4.31;100.00;100440.84;5046920;28;20248;-74
2023/12/20 07:02:11;;;;;;;6.67;3.83;;;;;;;4.32;100.00;100434.53;5040885;28;20196;-72
2023/12/20 07:04:40;;;;;;;7.47;3.57;;;;;;;4.31;100.00;100444.19;5044105;28;20199;-72
2023/12/20 07:07:07;;;;;;;6.07;3.90;;;;;;;4.34;100.00;100445.47;5042761;28;20196;-73
2023/12/20 07:09:33;;;;;;;5.47;3.87;;;;;;;4.36;100.00;100451.22;5045406;28;20212;-73
2023/12/20 07:12:00;;;;;;;9.23;4.70;;;;;;;4.40;100.00;100452.94;5046899;28;20195;-74
2023/12/20 07:14:27;;;;;;;7.47;4.43;;;;;;;4.43;100.00;100455.00;5043608;28;20198;-74
2023/12/20 07:16:54;;;;;;;7.23;4.80;;;;;;;4.48;100.00;100459.34;5041445;28;20291;-73
2023/12/20 07:19:20;;;;;;;6.60;4.50;;;;;;;4.53;100.00;100467.91;5041915;28;20320;-74
2023/12/20 07:21:46;;;;;;;6.90;4.03;;;;;;;4.56;100.00;100471.78;5044138;28;20208;-74
2023/12/20 07:24:13;;;;;;;7.00;4.57;;;;;;;4.59;100.00;100463.34;5043633;28;20200;-74
2023/12/20 07:26:40;;;;;;;7.33;4.30;;;;;;;4.60;100.00;100462.28;5045410;28;20229;-74
2023/12/20 07:29:06;;;;;;;6.77;4.30;;;;;;;4.60;100.00;100455.22;5042643;28;20214;-73
2023/12/20 07:31:34;;;;;;;10.17;4.00;;;;;;;4.59;100.00;100455.50;5025088;28;20210;-73
2023/12/20 07:34:01;;;;;;;7.87;3.73;;;;;;;4.55;100.00;100444.84;5037554;28;20199;-73
2023/12/20 07:36:27;;;;;;;12.17;4.03;;;;;;;4.55;100.00;100455.31;4991992;28;20231;-74
2023/12/20 07:38:54;;;;;;;9.33;4.17;;;;;;;4.56;100.00;100459.47;5001644;28;20224;-73
2023/12/20 07:41:21;;;;;;;8.77;4.20;;;;;;;4.58;100.00;100453.94;4999284;28;20195;-73
2023/12/20 07:43:48;;;;;;;12.53;4.10;;;;;;;4.60;100.00;100460.44;4996429;28;20426;-74
2023/12/20 07:46:14;;;;;;;7.00;3.37;;;;;;;4.61;100.00;100451.53;4998046;28;20216;-73
2023/12/20 07:48:42;;;;;;;9.50;4.93;;;;;;;4.63;100.00;100454.66;5005462;28;20224;-73
2023/12/20 07:51:09;;;;;;;11.13;3.83;;;;;;;4.64;100.00;100450.97;5002931;28;20197;-73
2023/12/20 07:53:36;;;;;;;7.20;4.00;;;;;;;4.66;100.00;100448.06;5004572;28;20203;-72
2023/12/20 07:56:02;;;;;;;7.93;3.57;;;;;;;4.65;100.00;100434.19;5002885;28;20209;-73
2023/12/20 07:58:29;;;;;;;8.10;3.87;;;;;;;4.66;100.00;100438.38;5005621;28;20221;-73
2023/12/20 08:00:56;;;;;;;7.77;3.53;;;;;;;4.66;100.00;100442.84;5004057;28;20640;-74
2023/12/20 08:03:22;;;;;;;9.73;3.63;;;;;;;4.66;100.00;100438.38;5006907;28;20208;-73
2023/12/20 08:05:50;;;;;;;7.07;3.90;;;;;;;4.69;100.00;100435.19;5004648;28;20263;-73
2023/12/20 08:08:16;;;;;;;9.87;3.97;;;;;;;4.72;100.00;100431.22;5001110;28;20209;-74
2023/12/20 08:10:43;;;;;;;13.43;4.43;;;;;;;4.76;100.00;100438.19;5006346;28;20201;-74
2023/12/20 08:13:09;;;;;;;45.53;14.77;;;;;;;4.81;100.00;100427.63;5001223;28;20744;-73
2023/12/20 08:15:37;;;;;;;16.33;5.30;;;;;;;4.85;100.00;100425.97;5007113;28;20199;-74
2023/12/20 08:18:03;;;;;;;9.50;3.90;;;;;;;4.90;100.00;100436.34;5003315;28;20267;-72
2023/12/20 08:20:30;;;;;;;9.70;3.57;;;;;;;4.97;100.00;100439.34;5006685;28;20220;-73
2023/12/20 08:22:57;;;;;;;9.70;3.57;;;;;;;5.05;100.00;100441.28;5006694;28;20448;-74
2023/12/20 08:25:24;;;;;;;13.73;4.53;;;;;;;5.13;100.00;100426.75;5001761;28;20602;-74
2023/12/20 08:27:50;;;;;;;10.60;4.43;;;;;;;5.18;100.00;100440.50;4999261;28;20215;-74
2023/12/20 08:30:20;;;;;;;6.83;3.87;;;;;;;5.22;100.00;100433.59;5002565;28;20254;-74
2023/12/20 08:32:47;;;;;;;9.93;5.13;;;;;;;5.25;100.00;100424.41;5003186;28;20304;-74
2023/12/20 08:35:13;;;;;;;16.10;4.80;;;;;;;5.27;100.00;100425.66;5004886;28;20209;-74
2023/12/20 08:37:39;;;;;;;12.67;4.47;;;;;;;5.27;100.00;100427.47;5003297;28;20398;-73
2023/12/20 08:40:08;;;;;;;11.97;4.53;;;;;;;5.28;100.00;100432.44;5005163;28;20244;-72
2023/12/20 08:42:35;;;;;;;16.10;5.00;;;;;;;5.28;100.00;100429.81;5003533;28;20197;-74
2023/12/20 08:45:01;;;;;;;8.27;5.00;;;;;;;5.30;100.00;100432.16;5007907;28;20201;-74
2023/12/20 08:47:27;;;;;;;14.13;4.57;;;;;;;5.29;100.00;100436.59;4999222;28;20840;-74
2023/12/20 08:49:56;;;;;;;12.73;5.53;;;;;;;5.30;100.00;100429.53;5002516;28;20221;-73
2023/12/20 08:52:22;;;;;;;8.87;5.00;;;;;;;5.31;100.00;100426.63;5005677;28;20209;-74
2023/12/20 08:54:51;;;;;;;10.37;5.03;;;;;;;5.29;100.00;100425.38;5003380;28;20660;-74
2023/12/20 08:57:19;;;;;;;10.80;5.00;;;;;;;5.29;100.00;100436.59;5003258;28;20586;-74
2023/12/20 08:59:45;;;;;;;7.00;4.57;;;;;;;5.29;100.00;100431.34;5002330;28;20219;-74
2023/12/20 09:02:12;;;;;;;9.13;4.27;;;;;;;5.29;100.00;100420.13;5006684;28;20207;-73
2023/12/20 09:04:38;;;;;;;9.73;4.63;;;;;;;5.30;100.00;100425.06;5003520;28;20229;-72
2023/12/20 09:07:05;;;;;;;8.03;4.10;;;;;;;5.29;100.00;100433.22;5008828;28;20203;-72
2023/12/20 09:09:32;;;;;;;7.83;4.10;;;;;;;5.27;100.00;100436.13;5003554;28;20584;-71
2023/12/20 09:11:58;;;;;;;9.73;4.73;;;;;;;5.30;100.00;100432.16;4999166;28;20284;-72
2023/12/20 09:14:26;;;;;;;12.70;4.63;;;;;;;5.32;100.00;100437.84;5001553;28;20205;-73
2023/12/20 09:16:55;;;;;;;12.43;4.63;;;;;;;5.35;100.00;100435.44;5001583;28;20427;-72
2023/12/20 09:19:22;;;;;;;8.50;4.10;;;;;;;5.36;100.00;100444.06;5000506;28;20267;-72
2023/12/20 09:21:48;;;;;;;9.63;4.23;;;;;;;5.38;100.00;100436.69;5001377;28;20196;-72
2023/12/20 09:24:15;;;;;;;8.23;4.03;;;;;;;5.37;100.00;100449.00;5003221;28;20206;-72
2023/12/20 09:26:42;;;;;;;9.40;4.17;;;;;;;5.38;100.00;100441.94;5005412;28;20628;-73
2023/12/20 09:29:10;;;;;;;8.17;3.83;;;;;;;5.38;100.00;100437.47;5003580;28;20223;-72
2023/12/20 09:31:38;;;;;;;10.27;4.73;;;;;;;5.40;100.00;100432.72;5004752;28;20200;-72
2023/12/20 09:34:05;;;;;;;7.50;4.50;;;;;;;5.41;100.00;100442.13;5002345;28;20197;-73
2023/12/20 09:36:35;;;;;;;8.10;3.10;;;;;;;5.44;100.00;100433.66;5001569;28;20197;-72
2023/12/20 09:39:02;;;;;;;5.17;3.10;;;;;;;5.46;100.00;100428.13;5003016;28;20428;-71
2023/12/20 09:41:32;;;;;;;5.97;2.97;;;;;;;5.49;100.00;100417.84;5003821;28;20219;-73
2023/12/20 09:44:03;;;;;;;4.17;2.83;;;;;;;5.52;100.00;100413.84;5005418;28;20587;-71
2023/12/20 09:46:33;;;;;;;5.80;3.03;;;;;;;5.54;100.00;100411.72;5003769;28;20781;-72
2023/12/20 09:49:02;;;;;;;6.27;3.03;;;;;;;5.57;100.00;100403.28;5003424;28;20220;-72
2023/12/20 09:51:29;;;;;;;10.50;3.67;;;;;;;5.59;100.00;100394.03;5005273;28;20205;-73
2023/12/20 09:53:57;;;;;;;6.73;2.97;;;;;;;5.63;100.00;100395.00;5002206;28;20300;-73
2023/12/20 09:56:25;;;;;;;5.80;3.27;;;;;;;5.67;100.00;100401.22;5002327;28;20213;-72
2023/12/20 09:58:52;;;;;;;9.00;3.33;;;;;;;5.72;100.00;100393.25;5004454;28;20220;-73
2023/12/20 10:01:19;;;;;;;6.47;3.33;;;;;;;5.76;100.00;100398.66;5002237;28;20201;-72
2023/12/20 10:03:46;;;;;;;4.93;3.30;;;;;;;5.78;100.00;100394.66;4998209;28;20196;-72
2023/12/20 10:06:14;;;;;;;6.10;3.37;;;;;;;5.81;100.00;100396.69;5003520;28;20201;-72
2023/12/20 10:08:40;;;;;;;7.47;3.70;;;;;;;5.81;100.00;100388.84;5003459;28;20583;-72
2023/12/20 10:11:06;;;;;;;9.10;4.30;;;;;;;5.83;100.00;100378.84;5004348;28;20687;-72
2023/12/20 10:13:33;;;;;;;4.87;3.07;;;;;;;5.86;100.00;100390.59;5006203;28;20694;-72
2023/12/20 10:16:00;;;;;;;5.60;2.77;;;;;;;5.89;100.00;100369.78;5004258;28;20216;-72
2023/12/20 10:18:29;;;;;;;5.20;2.80;;;;;;;5.90;100.00;100365.34;5004065;28;20228;-72
2023/12/20 10:20:56;;;;;;;7.57;2.27;;;;;;;5.92;100.00;100357.94;4999852;28;20200;-72
2023/12/20 10:23:23;;;;;;;4.13;2.20;;;;;;;5.93;100.00;100368.13;4999417;28;20201;-73
2023/12/20 10:26:00;;;;;;;5.37;2.23;;;;;;;5.97;100.00;100371.69;5006309;28;20549;-72
2023/12/20 10:28:27;;;;;;;4.17;2.30;;;;;;;6.00;100.00;100372.94;5000583;28;20201;-72
2023/12/20 10:30:54;;;;;;;9.90;1.93;;;;;;;6.03;100.00;100367.88;5018938;28;20342;-73
2023/12/20 10:33:25;;;;;;;6.30;2.40;;;;;;;6.04;100.00;100369.41;4999024;28;20204;-72
2023/12/20 10:35:52;;;;;;;7.70;3.00;;;;;;;6.06;100.00;100364.66;4998480;28;20193;-72
2023/12/20 10:38:19;;;;;;;3.63;2.30;;;;;;;6.08;100.00;100365.13;4997805;28;20196;-73
2023/12/20 10:40:47;;;;;;;4.23;1.73;;;;;;;6.11;100.00;100346.16;4998488;28;20206;-72
2023/12/20 10:43:14;;;;;;;7.07;1.90;;;;;;;6.13;100.00;100353.75;5002968;28;20201;-72
2023/12/20 10:45:42;;;;;;;4.30;1.87;;;;;;;6.17;100.00;100352.06;5002449;28;20209;-72
2023/12/20 10:48:11;;;;;;;2.83;1.60;;;;;;;6.19;100.00;100337.59;5000380;28;20563;-73
2023/12/20 10:50:39;;;;;;;3.77;1.60;;;;;;;6.21;100.00;100334.66;5002401;28;20219;-72
2023/12/20 10:53:07;;;;;;;3.87;1.73;;;;;;;6.23;100.00;100329.88;4999595;28;20208;-72
2023/12/20 10:55:34;;;;;;;6.33;1.67;;;;;;;6.25;100.00;100328.50;4999955;28;20614;-72
2023/12/20 10:58:07;;;;;;;5.90;1.30;;;;;;;6.29;100.00;100331.28;5002828;28;20282;-72
2023/12/20 11:00:36;;;;;;;4.27;1.70;;;;;;;6.31;100.00;100329.91;5001537;28;20192;-72
2023/12/20 11:03:03;;;;;;;7.53;1.60;;;;;;;6.34;100.00;100328.53;5002612;28;20564;-72
2023/12/20 11:05:37;;;;;;;1.40;1.27;;;;;;;6.36;100.00;100329.78;4998472;28;20431;-72
2023/12/20 11:08:09;;;;;;;2.13;1.10;;;;;;;6.38;100.00;100325.00;4999851;28;20211;-72
2023/12/20 11:10:44;;;;;;;5.20;1.60;;;;;;;6.40;100.00;100304.50;5001260;28;20224;-73
2023/12/20 11:13:18;;;;;;;13.27;5.13;;;;;;;6.43;100.00;100314.38;4996047;28;20266;-72
2023/12/20 11:15:45;;;;;;;2.80;1.40;;;;;;;6.45;100.00;100314.06;5002142;28;20566;-72
2023/12/20 11:18:12;;;;;;;4.07;1.60;;;;;;;6.47;100.00;100298.81;4994568;28;20627;-72
2023/12/20 11:20:40;;;;;;;4.97;1.57;;;;;;;6.43;100.00;100296.00;5000612;28;20208;-72
2023/12/20 11:23:08;;;;;;;6.17;2.10;;;;;;;6.44;100.00;100291.56;4997993;28;20201;-72